createdAt,value
2018-06-20T00:02:14.107Z,70.56
2018-06-20T00:04:43.421Z,70.34
2018-06-20T00:07:12.688Z,72.39
2018-06-20T00:09:42.077Z,70.92
2018-06-20T00:12:11.360Z,70.03
2018-06-20T00:14:40.756Z,71.26
2018-06-20T00:17:10.038Z,71.98
2018-06-20T00:19:39.312Z,72.83
2018-06-20T00:22:08.735Z,71.41
2018-06-20T00:24:38.045Z,71.31
2018-06-20T00:27:07.365Z,69.99
2018-06-20T00:29:36.632Z,70.83
2018-06-20T00:32:05.965Z,71.95
2018-06-20T00:34:35.281Z,73.86
2018-06-20T00:37:04.605Z,73.02
2018-06-20T00:39:33.997Z,72.87
2018-06-20T00:42:03.281Z,72.27
2018-06-20T00:44:32.564Z,72.47
2018-06-20T00:47:01.880Z,72.86
2018-06-20T00:49:31.223Z,71.85
2018-06-20T00:52:00.562Z,70.69
2018-06-20T00:54:29.936Z,70.84
2018-06-20T00:56:59.287Z,70.36
2018-06-20T00:59:28.585Z,68.95
2018-06-20T01:01:57.973Z,68.76
2018-06-20T01:04:27.304Z,71.69
2018-06-20T01:06:56.608Z,69.45
2018-06-20T01:09:25.981Z,68.87
2018-06-20T01:11:55.467Z,69.78
2018-06-20T01:14:24.680Z,68.08
2018-06-20T01:16:54.089Z,69.15
2018-06-20T01:19:23.397Z,67.64
2018-06-20T01:21:52.673Z,70.84
2018-06-20T01:24:21.948Z,71.33
2018-06-20T01:26:51.259Z,69.82
2018-06-20T01:29:20.524Z,68.20
2018-06-20T01:31:49.840Z,70.68
2018-06-20T01:34:19.164Z,69.07
2018-06-20T01:36:48.445Z,68.25
2018-06-20T01:39:17.724Z,69.36
2018-06-20T01:41:47.060Z,71.63
2018-06-20T01:44:16.332Z,69.38
2018-06-20T01:46:45.643Z,69.42
2018-06-20T01:49:14.968Z,69.13
2018-06-20T01:51:44.236Z,67.90
2018-06-20T01:54:13.518Z,68.16
2018-06-20T01:56:42.800Z,68.43
2018-06-20T01:59:12.092Z,71.68
2018-06-20T02:01:41.413Z,67.31
2018-06-20T02:04:10.812Z,67.99
2018-06-20T02:06:40.104Z,69.01
2018-06-20T02:09:09.371Z,69.15
2018-06-20T02:11:38.652Z,69.14
2018-06-20T02:14:07.973Z,69.03
2018-06-20T02:16:37.267Z,68.73
2018-06-20T02:19:06.616Z,68.28
2018-06-20T02:21:35.920Z,68.64
2018-06-20T02:24:05.221Z,68.92
2018-06-20T02:26:34.492Z,69.12
2018-06-20T02:29:03.841Z,70.27
2018-06-20T02:31:33.117Z,69.25
2018-06-20T02:34:02.397Z,68.91
2018-06-20T02:36:32.892Z,67.58
2018-06-20T02:39:04.722Z,67.76
2018-06-20T02:41:34.296Z,67.72
2018-06-20T02:44:03.639Z,68.30
2018-06-20T02:46:33.169Z,69.21
2018-06-20T02:49:02.636Z,68.29
2018-06-20T02:51:31.918Z,68.22
2018-06-20T02:54:01.319Z,68.95
2018-06-20T02:56:30.609Z,68.09
2018-06-20T02:58:59.957Z,68.39
2018-06-20T03:01:30.381Z,69.08
2018-06-20T03:03:59.665Z,69.27
2018-06-20T03:06:28.933Z,68.28
2018-06-20T03:09:02.096Z,68.32
2018-06-20T03:11:31.641Z,69.15
2018-06-20T03:14:00.935Z,68.36
2018-06-20T03:16:30.266Z,68.58
2018-06-20T03:18:59.580Z,68.13
2018-06-20T03:21:28.884Z,68.96
2018-06-20T03:23:58.196Z,68.48
2018-06-20T03:26:27.520Z,70.66
2018-06-20T03:28:56.901Z,71.06
2018-06-20T03:31:26.264Z,67.81
2018-06-20T03:33:56.205Z,68.29
2018-06-20T03:36:25.841Z,68.16
2018-06-20T03:38:55.156Z,68.39
2018-06-20T03:41:24.478Z,68.41
2018-06-20T03:43:53.821Z,68.14
2018-06-20T03:46:23.143Z,68.60
2018-06-20T03:48:52.512Z,68.31
2018-06-20T03:51:21.853Z,68.80
2018-06-20T03:53:51.249Z,69.24
2018-06-20T03:56:20.540Z,68.06
2018-06-20T03:58:49.914Z,67.94
2018-06-20T04:01:19.402Z,67.39
2018-06-20T04:03:48.698Z,69.27
2018-06-20T04:06:17.968Z,68.11
2018-06-20T04:08:47.286Z,68.38
2018-06-20T04:11:16.564Z,68.11
2018-06-20T04:13:45.877Z,67.39
2018-06-20T04:16:15.132Z,68.54
2018-06-20T04:18:45.037Z,68.05
2018-06-20T04:21:15.429Z,67.25
2018-06-20T04:23:44.735Z,68.87
2018-06-20T04:26:14.213Z,67.01
2018-06-20T04:28:43.488Z,67.71
2018-06-20T04:31:12.773Z,67.08
2018-06-20T04:33:42.209Z,66.26
2018-06-20T04:36:11.477Z,65.60
2018-06-20T04:38:40.756Z,64.56
2018-06-20T04:41:10.084Z,64.39
2018-06-20T04:43:39.449Z,63.95
2018-06-20T04:46:08.888Z,64.37
2018-06-20T04:48:38.233Z,63.24
2018-06-20T04:51:07.614Z,62.18
2018-06-20T04:53:37.065Z,61.26
2018-06-20T04:56:06.440Z,60.64
2018-06-20T04:58:35.756Z,60.03
2018-06-20T05:01:05.117Z,60.68
2018-06-20T05:03:34.453Z,62.03
2018-06-20T05:06:03.785Z,61.48
2018-06-20T05:08:33.136Z,62.08
2018-06-20T05:11:02.535Z,60.12
2018-06-20T05:13:31.877Z,60.07
2018-06-20T05:16:01.349Z,59.59
2018-06-20T05:18:30.679Z,58.66
2018-06-20T05:20:59.957Z,60.70
2018-06-20T05:23:29.390Z,59.48
2018-06-20T05:25:58.671Z,61.25
2018-06-20T05:28:28.034Z,60.01
2018-06-20T05:30:57.329Z,60.82
2018-06-20T05:33:26.716Z,60.16
2018-06-20T05:35:57.310Z,60.31
2018-06-20T05:38:26.753Z,60.13
2018-06-20T05:40:56.084Z,60.54
2018-06-20T05:43:25.402Z,60.68
2018-06-20T05:45:54.682Z,61.58
2018-06-20T05:48:24.121Z,61.52
2018-06-20T05:50:53.974Z,61.20
2018-06-20T05:53:24.229Z,60.98
2018-06-20T05:55:53.890Z,61.22
2018-06-20T05:58:24.076Z,62.30
2018-06-20T06:00:54.672Z,60.42
2018-06-20T06:03:25.358Z,60.09
2018-06-20T06:06:07.524Z,59.80
2018-06-20T06:08:36.963Z,60.25
2018-06-20T06:11:07.234Z,59.34
2018-06-20T06:13:37.189Z,59.76
2018-06-20T06:16:06.566Z,60.15
2018-06-20T06:18:36.444Z,59.24
2018-06-20T06:21:06.305Z,59.69
2018-06-20T06:23:35.622Z,58.47
2018-06-20T06:26:05.040Z,58.25
2018-06-20T06:28:34.376Z,57.63
2018-06-20T06:31:03.700Z,59.08
2018-06-20T06:33:33.056Z,59.89
2018-06-20T06:36:02.369Z,58.77
2018-06-20T06:38:31.676Z,58.80
2018-06-20T06:41:00.996Z,57.80
2018-06-20T06:43:30.383Z,57.92
2018-06-20T06:45:59.656Z,56.51
2018-06-20T06:48:28.924Z,56.49
2018-06-20T06:50:58.257Z,57.33
2018-06-20T06:53:27.717Z,56.75
2018-06-20T06:55:57.046Z,56.14
2018-06-20T06:58:26.294Z,56.55
2018-06-20T07:00:55.577Z,55.81
2018-06-20T07:03:24.941Z,56.68
2018-06-20T07:05:54.261Z,57.42
2018-06-20T07:08:23.545Z,56.28
2018-06-20T07:10:53.011Z,55.67
2018-06-20T07:13:22.330Z,52.40
2018-06-20T07:15:51.620Z,51.75
2018-06-20T07:18:20.916Z,49.01
2018-06-20T07:20:50.246Z,51.51
2018-06-20T07:23:19.521Z,50.60
2018-06-20T07:25:48.860Z,52.58
2018-06-20T07:28:18.196Z,52.70
2018-06-20T07:30:47.644Z,53.21
2018-06-20T07:33:17.083Z,52.90
2018-06-20T07:35:46.448Z,53.42
2018-06-20T07:38:15.709Z,54.82
2018-06-20T07:40:45.043Z,54.82
2018-06-20T07:43:14.389Z,54.08
2018-06-20T07:45:43.723Z,53.30
2018-06-20T07:48:13.023Z,51.81
2018-06-20T07:50:42.412Z,50.75
2018-06-20T07:53:11.678Z,51.04
2018-06-20T07:55:41.095Z,52.81
2018-06-20T07:58:13.268Z,51.43
2018-06-20T08:00:47.793Z,51.41
2018-06-20T08:03:22.377Z,51.12
2018-06-20T08:05:56.896Z,50.30
2018-06-20T08:08:33.253Z,51.07
2018-06-20T08:11:07.778Z,49.92
2018-06-20T08:13:42.249Z,50.30
2018-06-20T08:16:16.948Z,50.40
2018-06-20T08:18:51.450Z,51.23
2018-06-20T08:21:20.845Z,51.41
2018-06-20T08:23:50.129Z,50.68
2018-06-20T08:26:19.422Z,49.67
2018-06-20T08:28:48.701Z,49.24
2018-06-20T08:31:17.968Z,49.05
2018-06-20T08:33:47.380Z,47.94
2018-06-20T08:36:16.671Z,47.61
2018-06-20T08:38:45.949Z,46.42
2018-06-20T08:41:15.365Z,46.20
2018-06-20T08:43:44.692Z,46.93
2018-06-20T08:46:14.457Z,45.02
2018-06-20T08:48:43.742Z,47.05
2018-06-20T08:51:13.011Z,45.58
2018-06-20T08:53:42.345Z,47.13
2018-06-20T08:56:11.643Z,47.73
2018-06-20T08:58:40.912Z,45.86
2018-06-20T09:01:10.176Z,45.70
2018-06-20T09:03:39.456Z,45.22
2018-06-20T09:06:14.691Z,45.77
2018-06-20T09:08:49.132Z,44.38
2018-06-20T09:11:23.696Z,45.02
2018-06-20T09:13:58.216Z,44.83
2018-06-20T09:16:32.705Z,44.60
2018-06-20T09:19:07.172Z,43.89
2018-06-20T09:21:36.544Z,46.62
2018-06-20T09:24:05.930Z,44.36
2018-06-20T09:26:35.186Z,46.87
2018-06-20T09:29:04.462Z,42.12
2018-06-20T09:31:34.090Z,35.85
2018-06-20T09:34:03.457Z,35.21
2018-06-20T09:36:32.780Z,32.25
2018-06-20T09:39:02.100Z,33.42
2018-06-20T09:41:31.371Z,32.56
2018-06-20T09:44:00.680Z,30.75
2018-06-20T09:46:29.988Z,31.04
2018-06-20T09:48:59.311Z,30.91
2018-06-20T09:51:28.612Z,31.78
2018-06-20T09:53:57.937Z,31.01
2018-06-20T09:56:27.222Z,28.82
2018-06-20T09:58:59.697Z,31.24
2018-06-20T10:01:34.235Z,30.99
2018-06-20T10:04:08.796Z,31.76
2018-06-20T10:06:43.414Z,29.91
2018-06-20T10:09:17.804Z,31.48
2018-06-20T10:11:52.432Z,31.97
2018-06-20T10:14:21.714Z,31.68
2018-06-20T10:16:51.943Z,30.64
2018-06-20T10:19:21.284Z,32.12
2018-06-20T10:21:50.600Z,32.70
2018-06-20T10:24:19.961Z,31.43
2018-06-20T10:26:49.239Z,33.79
2018-06-20T10:29:18.524Z,31.06
2018-06-20T10:31:47.812Z,28.79
2018-06-20T10:34:17.173Z,30.33
2018-06-20T10:36:46.712Z,28.81
2018-06-20T10:39:15.976Z,30.18
2018-06-20T10:41:45.265Z,31.40
2018-06-20T10:44:15.781Z,28.91
2018-06-20T10:46:50.428Z,29.23
2018-06-20T10:49:20.122Z,31.04
2018-06-20T10:51:49.391Z,30.03
2018-06-20T10:54:18.882Z,29.79
2018-06-20T10:56:53.402Z,30.25
2018-06-20T10:59:27.940Z,28.70
2018-06-20T11:02:02.536Z,28.11
2018-06-20T11:04:38.680Z,28.92
2018-06-20T11:07:13.275Z,28.60
2018-06-20T11:09:48.057Z,30.95
2018-06-20T11:12:23.805Z,29.31
2018-06-20T11:14:53.316Z,30.97
2018-06-20T11:17:23.463Z,32.00
2018-06-20T11:19:53.402Z,33.40
2018-06-20T11:22:22.725Z,35.51
2018-06-20T11:24:52.116Z,35.67
2018-06-20T11:27:21.402Z,33.92
2018-06-20T11:29:50.662Z,33.60
2018-06-20T11:32:19.925Z,32.84
2018-06-20T11:34:49.216Z,34.00
2018-06-20T11:37:18.548Z,33.40
2018-06-20T11:39:47.825Z,34.68
2018-06-20T11:42:17.098Z,33.72
2018-06-20T11:44:46.352Z,34.04
2018-06-20T11:47:20.836Z,33.51
2018-06-20T11:49:50.156Z,36.56
2018-06-20T11:52:24.696Z,38.37
2018-06-20T11:54:58.192Z,35.66
2018-06-20T11:57:27.516Z,37.04
2018-06-20T12:00:02.004Z,36.46
2018-06-20T12:02:36.613Z,36.42
2018-06-20T12:05:11.106Z,35.79
2018-06-20T12:07:45.672Z,35.88
2018-06-20T12:10:21.149Z,33.21
2018-06-20T12:12:56.596Z,33.90
2018-06-20T12:15:31.089Z,31.91
2018-06-20T12:18:06.271Z,34.65
2018-06-20T12:20:41.812Z,34.18
2018-06-20T12:23:16.509Z,32.27
2018-06-20T12:25:51.149Z,34.21
2018-06-20T12:28:25.714Z,34.59
2018-06-20T12:31:01.192Z,33.75
2018-06-20T12:33:35.733Z,33.71
2018-06-20T12:36:10.455Z,33.95
2018-06-20T12:38:52.408Z,32.27
2018-06-20T12:41:27.708Z,33.23
2018-06-20T12:46:08.252Z,34.10
2018-06-20T12:48:37.560Z,33.17
2018-06-20T12:51:06.867Z,33.02
2018-06-20T12:53:36.249Z,33.24
2018-06-20T12:56:05.712Z,35.27
2018-06-20T12:58:35.010Z,33.53
2018-06-20T13:01:04.288Z,34.11
2018-06-20T13:03:33.603Z,34.36
2018-06-20T13:06:02.967Z,35.16
2018-06-20T13:08:32.277Z,34.19
2018-06-20T13:11:01.574Z,32.00
2018-06-20T13:13:30.973Z,33.58
2018-06-20T13:16:00.272Z,33.32
2018-06-20T13:18:30.154Z,34.19
2018-06-20T13:20:59.493Z,34.04
2018-06-20T13:23:28.761Z,34.81
2018-06-20T13:25:58.062Z,35.15
2018-06-20T13:28:27.349Z,35.88
2018-06-20T13:31:01.940Z,35.29
2018-06-20T13:33:36.486Z,33.45
2018-06-20T13:36:11.099Z,32.85
2018-06-20T13:38:45.660Z,33.55
2018-06-20T13:41:20.249Z,34.99
2018-06-20T13:43:54.716Z,34.42
2018-06-20T13:46:29.284Z,33.01
2018-06-20T13:48:58.614Z,33.85
2018-06-20T13:51:27.998Z,32.35
2018-06-20T13:53:57.293Z,33.46
2018-06-20T13:56:26.572Z,31.92
2018-06-20T13:58:55.881Z,32.82
2018-06-20T14:01:25.152Z,34.02
2018-06-20T14:03:54.540Z,34.14
2018-06-20T14:06:23.857Z,33.48
2018-06-20T14:08:53.137Z,33.07
2018-06-20T14:11:22.715Z,31.62
2018-06-20T14:13:52.092Z,33.67
2018-06-20T14:16:21.470Z,32.27
2018-06-20T14:18:50.781Z,32.99
2018-06-20T14:21:25.390Z,31.85
2018-06-20T14:23:54.665Z,33.49
2018-06-20T14:26:24.053Z,33.21
2018-06-20T14:28:53.337Z,31.79
2018-06-20T14:31:27.868Z,31.90
2018-06-20T14:34:02.439Z,32.63
2018-06-20T14:36:37.061Z,33.47
2018-06-20T14:39:14.252Z,33.34
2018-06-20T14:41:48.876Z,30.77
2018-06-20T14:44:18.185Z,33.12
2018-06-20T14:46:47.548Z,30.68
2018-06-20T14:49:16.911Z,31.69
2018-06-20T14:51:46.192Z,31.95
2018-06-20T14:54:15.504Z,30.74
2018-06-20T14:56:45.314Z,31.70
2018-06-20T14:59:15.421Z,32.94
2018-06-20T15:01:44.761Z,30.45
2018-06-20T15:04:20.690Z,30.97
2018-06-20T15:06:50.033Z,30.98
2018-06-20T15:09:19.302Z,30.39
2018-06-20T15:11:48.689Z,30.36
2018-06-20T15:14:18.057Z,30.94
2018-06-20T15:16:52.605Z,30.80
2018-06-20T15:19:21.932Z,31.83
2018-06-20T15:21:51.224Z,32.41
2018-06-20T15:24:20.590Z,30.95
2018-06-20T15:26:55.081Z,30.57
2018-06-20T15:29:29.623Z,31.45
2018-06-20T15:32:04.189Z,32.97
2018-06-20T15:34:38.720Z,32.05
2018-06-20T15:37:13.293Z,30.80
2018-06-20T15:39:42.690Z,32.32
2018-06-20T15:42:12.160Z,30.10
2018-06-20T15:44:41.509Z,29.62
2018-06-20T15:47:10.837Z,30.43
2018-06-20T15:49:40.206Z,31.22
2018-06-20T15:52:09.518Z,31.44
2018-06-20T15:54:38.780Z,31.21
2018-06-20T15:57:08.285Z,32.04
2018-06-20T15:59:37.719Z,32.01
2018-06-20T16:02:08.083Z,30.64
2018-06-20T16:04:37.632Z,30.82
2018-06-20T16:07:06.940Z,31.99
2018-06-20T16:09:41.401Z,30.85
2018-06-20T16:12:10.672Z,31.38
2018-06-20T16:14:40.049Z,31.95
2018-06-20T16:17:09.329Z,32.31
2018-06-20T16:19:44.013Z,33.15
2018-06-20T16:22:19.613Z,32.91
2018-06-20T16:24:54.126Z,32.18
2018-06-20T16:27:28.604Z,32.33
2018-06-20T16:30:03.290Z,32.60
2018-06-20T16:32:32.549Z,33.33
2018-06-20T16:35:02.280Z,32.81
2018-06-20T16:37:31.606Z,33.77
2018-06-20T16:40:00.966Z,32.50
2018-06-20T16:42:30.289Z,33.98
2018-06-20T16:44:59.717Z,32.25
2018-06-20T16:47:28.996Z,34.26
2018-06-20T16:49:58.267Z,34.59
2018-06-20T16:52:27.539Z,34.64
2018-06-20T16:54:56.944Z,33.89
2018-06-20T16:57:26.382Z,34.10
2018-06-20T16:59:55.705Z,33.17
2018-06-20T17:02:30.340Z,33.98
2018-06-20T17:04:59.765Z,32.94
2018-06-20T17:07:29.214Z,32.83
2018-06-20T17:09:58.504Z,32.25
2018-06-20T17:12:33.153Z,33.12
2018-06-20T17:15:07.593Z,35.08
2018-06-20T17:17:42.067Z,34.21
2018-06-20T17:22:19.512Z,33.35
2018-06-20T17:24:54.011Z,33.81
2018-06-20T17:27:23.308Z,34.20
2018-06-20T17:29:52.585Z,33.67
2018-06-20T17:32:21.932Z,34.36
2018-06-20T17:34:51.229Z,34.45
2018-06-20T17:37:20.501Z,34.61
2018-06-20T17:39:49.891Z,35.57
2018-06-20T17:42:19.224Z,33.36
2018-06-20T17:44:48.603Z,34.20
2018-06-20T17:47:17.957Z,34.12
2018-06-20T17:49:47.339Z,34.97
2018-06-20T17:52:16.650Z,35.18
2018-06-20T17:54:45.950Z,34.23
2018-06-20T17:57:15.348Z,35.01
2018-06-20T17:59:44.628Z,35.34
2018-06-20T18:02:13.908Z,35.94
2018-06-20T18:04:48.461Z,34.77
2018-06-20T18:09:28.067Z,35.00
2018-06-20T18:12:02.552Z,36.27
2018-06-20T18:14:37.041Z,35.33
2018-06-20T18:17:06.381Z,36.77
2018-06-20T18:19:35.746Z,35.26
2018-06-20T18:22:05.232Z,36.40
2018-06-20T18:24:34.566Z,35.63
2018-06-20T18:27:03.893Z,35.00
2018-06-20T18:29:33.784Z,36.50
2018-06-20T18:34:34.498Z,37.91
2018-06-20T18:37:03.941Z,38.21
2018-06-20T18:39:39.124Z,39.10
2018-06-20T18:42:08.460Z,39.47
2018-06-20T18:44:38.014Z,40.13
2018-06-20T18:47:07.493Z,40.62
2018-06-20T18:49:37.384Z,40.96
2018-06-20T18:52:07.090Z,42.32
2018-06-20T18:54:36.711Z,42.48
2018-06-20T18:57:10.589Z,43.96
2018-06-20T18:59:45.533Z,43.08
2018-06-20T19:02:20.971Z,44.92
2018-06-20T19:06:56.865Z,44.71
2018-06-20T19:09:26.335Z,44.35
2018-06-20T19:11:56.189Z,45.93
2018-06-20T19:14:27.407Z,46.40
2018-06-20T19:16:57.028Z,46.82
2018-06-20T19:19:26.405Z,47.39
2018-06-20T19:21:55.772Z,47.44
2018-06-20T19:24:25.126Z,47.13
2018-06-20T19:26:54.433Z,48.28
2018-06-20T19:29:23.792Z,48.17
2018-06-20T19:35:03.389Z,50.31
2018-06-20T19:37:32.768Z,50.03
2018-06-20T19:40:02.079Z,49.70
2018-06-20T19:42:31.530Z,49.14
2018-06-20T19:45:00.942Z,51.14
2018-06-20T19:47:30.741Z,50.22
2018-06-20T19:50:00.186Z,51.17
2018-06-20T19:52:29.667Z,51.02
2018-06-20T19:54:59.064Z,51.81
2018-06-20T19:57:28.858Z,51.67
2018-06-20T19:59:58.184Z,52.11
2018-06-20T20:02:27.550Z,52.64
2018-06-20T20:04:57.186Z,53.54
2018-06-20T20:07:26.980Z,53.25
2018-06-20T20:09:56.723Z,53.37
2018-06-20T20:12:26.276Z,53.58
2018-06-20T20:14:55.767Z,51.43
2018-06-20T20:17:25.397Z,53.32
2018-06-20T20:19:54.734Z,53.42
2018-06-20T20:22:24.329Z,54.70
2018-06-20T20:24:53.911Z,53.93
2018-06-20T20:27:23.429Z,53.53
2018-06-20T20:29:55.569Z,53.84
2018-06-20T20:32:30.342Z,53.55
2018-06-20T20:35:00.440Z,54.25
2018-06-20T20:37:31.177Z,54.08
2018-06-20T20:40:00.732Z,53.67
2018-06-20T20:42:30.395Z,53.92
2018-06-20T20:44:59.949Z,56.20
2018-06-20T20:47:29.316Z,56.59
2018-06-20T20:49:58.666Z,55.51
2018-06-20T20:52:27.966Z,55.14
2018-06-20T20:54:57.429Z,56.60
2018-06-20T20:57:26.869Z,55.32
2018-06-20T20:59:56.225Z,56.02
2018-06-20T21:02:25.500Z,56.43
2018-06-20T21:04:56.525Z,56.22
2018-06-20T21:07:26.629Z,55.91
2018-06-20T21:09:55.985Z,56.22
2018-06-20T21:12:25.305Z,55.94
2018-06-20T21:14:54.613Z,58.56
2018-06-20T21:17:24.110Z,57.48
2018-06-20T21:19:53.727Z,57.36
2018-06-20T21:22:23.096Z,57.67
2018-06-20T21:24:52.473Z,56.63
2018-06-20T21:27:21.773Z,57.37
2018-06-20T21:29:51.080Z,56.52
2018-06-20T21:32:20.389Z,58.07
2018-06-20T21:34:49.752Z,56.96
2018-06-20T21:37:19.042Z,57.74
2018-06-20T21:39:48.371Z,56.96
2018-06-20T21:42:17.717Z,57.69
2018-06-20T21:44:47.096Z,56.96
2018-06-20T21:47:16.382Z,57.61
2018-06-20T21:49:45.645Z,57.05
2018-06-20T21:52:15.015Z,56.38
2018-06-20T21:54:44.297Z,57.04
2018-06-20T21:57:13.670Z,58.10
2018-06-20T21:59:43.034Z,56.91
2018-06-20T22:02:12.341Z,59.08
2018-06-20T22:04:41.642Z,57.43
2018-06-20T22:07:10.918Z,58.79
2018-06-20T22:09:40.377Z,58.16
2018-06-20T22:12:09.709Z,58.87
2018-06-20T22:14:39.069Z,59.41
2018-06-20T22:17:08.438Z,60.10
2018-06-20T22:19:37.980Z,60.21
2018-06-20T22:22:07.982Z,60.64
2018-06-20T22:24:37.316Z,59.59
2018-06-20T22:27:06.616Z,58.52
2018-06-20T22:29:35.943Z,59.18
2018-06-20T22:32:05.267Z,59.22
2018-06-20T22:34:34.627Z,57.75
2018-06-20T22:37:04.005Z,59.78
2018-06-20T22:39:33.317Z,59.79
2018-06-20T22:42:02.648Z,60.99
2018-06-20T22:44:31.925Z,61.11
2018-06-20T22:47:01.257Z,60.61
2018-06-20T22:49:30.585Z,59.90
2018-06-20T22:51:59.990Z,60.42
2018-06-20T22:54:29.284Z,60.72
2018-06-20T22:56:58.636Z,60.99
2018-06-20T22:59:27.918Z,59.65
2018-06-20T23:01:57.203Z,60.75
2018-06-20T23:04:26.510Z,59.92
2018-06-20T23:06:55.814Z,61.13
2018-06-20T23:09:25.222Z,60.29
2018-06-20T23:11:54.497Z,61.52
2018-06-20T23:14:23.805Z,61.13
2018-06-20T23:16:53.094Z,60.07
2018-06-20T23:19:22.427Z,61.38
2018-06-20T23:21:51.709Z,61.69
2018-06-20T23:24:21.015Z,64.15
2018-06-20T23:26:50.386Z,63.88
2018-06-20T23:29:19.664Z,62.98
2018-06-20T23:31:48.973Z,60.77
2018-06-20T23:34:18.258Z,61.91
2018-06-20T23:36:47.537Z,62.62
2018-06-20T23:39:16.865Z,61.22
2018-06-20T23:41:46.148Z,61.61
2018-06-20T23:44:15.426Z,61.30
2018-06-20T23:46:44.773Z,62.71
2018-06-20T23:49:14.098Z,62.87
2018-06-20T23:51:43.365Z,62.58
2018-06-20T23:54:12.700Z,62.87
2018-06-20T23:56:42.054Z,61.47
2018-06-20T23:59:11.462Z,62.06
